createdAt,value
2022-11-30T00:01:23.697Z,24.97
2022-11-30T00:03:55.340Z,24.07
2022-11-30T00:06:23.680Z,22.90
2022-11-30T00:08:58.896Z,24.57
2022-11-30T00:11:28.743Z,21.53
2022-11-30T00:13:55.926Z,24.80
2022-11-30T00:16:23.320Z,24.83
2022-11-30T00:18:50.872Z,22.67
2022-11-30T00:21:17.936Z,22.80
2022-11-30T00:23:46.760Z,23.13
2022-11-30T00:26:22.620Z,23.40
2022-11-30T00:28:49.614Z,22.73
2022-11-30T00:31:19.087Z,21.83
2022-11-30T00:33:46.902Z,22.47
2022-11-30T00:36:22.203Z,23.60
2022-11-30T00:38:51.074Z,23.13
2022-11-30T00:41:19.830Z,24.57
2022-11-30T00:43:47.042Z,23.77
2022-11-30T00:46:14.964Z,23.60
2022-11-30T00:48:42.395Z,24.73
2022-11-30T00:51:11.708Z,23.00
2022-11-30T00:53:40.145Z,24.60
2022-11-30T00:56:09.054Z,24.07
2022-11-30T00:58:36.135Z,25.10
2022-11-30T01:01:03.763Z,25.03
2022-11-30T01:03:30.804Z,22.77
2022-11-30T01:06:07.105Z,24.67
2022-11-30T01:08:35.037Z,23.10
2022-11-30T01:11:11.330Z,26.17
2022-11-30T01:13:38.356Z,23.57
2022-11-30T01:16:13.195Z,24.87
2022-11-30T01:18:40.186Z,24.50
2022-11-30T01:21:16.553Z,22.63
2022-11-30T01:23:44.478Z,23.80
2022-11-30T01:26:12.587Z,23.70
2022-11-30T01:28:41.205Z,25.43
2022-11-30T01:31:11.831Z,24.90
2022-11-30T01:33:39.803Z,27.20
2022-11-30T01:36:13.754Z,23.07
2022-11-30T01:38:45.054Z,23.53
2022-11-30T01:41:16.959Z,23.03
2022-11-30T01:43:51.421Z,26.33
2022-11-30T01:46:23.404Z,23.93
2022-11-30T01:49:01.137Z,24.90
2022-11-30T01:51:40.544Z,22.83
2022-11-30T01:54:12.068Z,24.00
2022-11-30T01:56:53.821Z,24.40
2022-11-30T01:59:24.238Z,24.37
2022-11-30T02:01:52.903Z,24.43
2022-11-30T02:04:22.788Z,23.47
2022-11-30T02:06:49.771Z,26.47
2022-11-30T02:09:20.174Z,24.67
2022-11-30T02:11:48.163Z,26.13
2022-11-30T02:14:34.251Z,23.10
2022-11-30T02:18:03.129Z,24.33
2022-11-30T02:21:21.370Z,26.00
2022-11-30T02:24:21.877Z,26.87
2022-11-30T02:27:00.549Z,27.60
2022-11-30T02:29:35.259Z,24.70
2022-11-30T02:32:14.102Z,28.23
2022-11-30T02:34:43.927Z,25.17
2022-11-30T02:37:14.169Z,24.80
2022-11-30T02:39:41.274Z,24.80
2022-11-30T02:42:14.126Z,28.50
2022-11-30T02:44:50.564Z,27.17
2022-11-30T02:47:32.638Z,26.77
2022-11-30T02:50:16.823Z,25.07
2022-11-30T02:52:45.160Z,27.33
2022-11-30T02:55:18.244Z,27.30
2022-11-30T02:57:45.655Z,26.80
2022-11-30T03:00:15.287Z,29.53
2022-11-30T03:02:43.042Z,26.87
2022-11-30T03:05:10.954Z,26.00
2022-11-30T03:07:39.035Z,27.67
2022-11-30T03:10:07.534Z,27.20
2022-11-30T03:12:34.466Z,27.33
2022-11-30T03:15:01.578Z,26.80
2022-11-30T03:17:28.513Z,27.57
2022-11-30T03:19:55.424Z,26.30
2022-11-30T03:22:22.354Z,27.07
2022-11-30T03:24:49.517Z,27.77
2022-11-30T03:27:16.686Z,26.37
2022-11-30T03:29:43.639Z,27.20
2022-11-30T03:32:10.532Z,27.13
2022-11-30T03:34:37.488Z,27.13
2022-11-30T03:37:04.508Z,29.10
2022-11-30T03:39:31.445Z,26.63
2022-11-30T03:41:58.539Z,28.93
2022-11-30T03:44:25.444Z,26.80
2022-11-30T03:46:52.468Z,25.87
2022-11-30T03:49:19.464Z,27.47
2022-11-30T03:51:46.407Z,29.90
2022-11-30T03:54:13.400Z,28.13
2022-11-30T03:56:40.388Z,27.60
2022-11-30T03:59:07.359Z,26.37
2022-11-30T04:01:34.337Z,29.90
2022-11-30T04:04:01.280Z,25.17
2022-11-30T04:06:28.165Z,25.80
2022-11-30T04:08:55.159Z,25.97
2022-11-30T04:11:22.079Z,25.93
2022-11-30T04:13:48.958Z,27.80
2022-11-30T04:16:15.950Z,26.20
2022-11-30T04:18:42.929Z,27.67
2022-11-30T04:21:11.888Z,26.70
2022-11-30T04:23:40.564Z,25.40
2022-11-30T04:26:12.420Z,26.50
2022-11-30T04:28:40.023Z,24.57
2022-11-30T04:31:07.284Z,26.93
2022-11-30T04:33:34.539Z,25.03
2022-11-30T04:36:05.374Z,26.23
2022-11-30T04:38:33.809Z,30.07
2022-11-30T04:41:06.880Z,27.60
2022-11-30T04:43:33.854Z,27.40
2022-11-30T04:46:00.820Z,26.43
2022-11-30T04:48:27.658Z,28.47
2022-11-30T04:50:54.593Z,27.07
2022-11-30T04:53:21.593Z,27.20
2022-11-30T04:55:48.464Z,28.13
2022-11-30T04:58:15.350Z,60.07
2022-11-30T05:00:42.314Z,35.43
2022-11-30T05:03:09.500Z,28.73
2022-11-30T05:05:36.505Z,25.77
2022-11-30T05:08:03.510Z,28.87
2022-11-30T05:10:33.712Z,27.40
2022-11-30T05:13:01.494Z,25.10
2022-11-30T05:15:28.735Z,29.03
2022-11-30T05:18:00.733Z,28.03
2022-11-30T05:20:29.564Z,26.90
2022-11-30T05:22:56.648Z,26.37
2022-11-30T05:25:23.668Z,29.50
2022-11-30T05:27:50.648Z,25.50
2022-11-30T05:30:17.848Z,27.67
2022-11-30T05:32:44.825Z,26.87
2022-11-30T05:35:11.933Z,26.90
2022-11-30T05:37:38.842Z,24.97
2022-11-30T05:40:07.107Z,28.67
2022-11-30T05:42:34.068Z,28.70
2022-11-30T05:45:00.997Z,24.40
2022-11-30T05:47:27.889Z,27.60
2022-11-30T05:49:54.789Z,25.33
2022-11-30T05:52:21.764Z,28.70
2022-11-30T05:54:48.985Z,24.70
2022-11-30T05:57:16.194Z,25.27
2022-11-30T05:59:43.133Z,24.97
2022-11-30T06:02:10.147Z,24.37
2022-11-30T06:04:37.190Z,24.37
2022-11-30T06:07:04.649Z,23.73
2022-11-30T06:09:31.552Z,24.20
2022-11-30T06:11:58.542Z,25.20
2022-11-30T06:14:25.443Z,27.13
2022-11-30T06:16:52.430Z,25.00
2022-11-30T06:19:19.456Z,25.77
2022-11-30T06:21:46.329Z,23.53
2022-11-30T06:24:13.346Z,28.20
2022-11-30T06:26:40.324Z,26.20
2022-11-30T06:29:07.266Z,27.07
2022-11-30T06:31:34.286Z,25.13
2022-11-30T06:34:01.244Z,23.50
2022-11-30T06:36:34.174Z,27.70
2022-11-30T06:39:04.073Z,24.90
2022-11-30T06:41:30.984Z,26.20
2022-11-30T06:43:57.864Z,25.77
2022-11-30T06:46:25.232Z,26.73
2022-11-30T06:48:52.168Z,26.50
2022-11-30T06:51:19.384Z,27.33
2022-11-30T06:53:47.341Z,26.67
2022-11-30T06:56:14.400Z,26.90
2022-11-30T06:58:42.894Z,26.67
2022-11-30T07:01:14.426Z,25.60
2022-11-30T07:03:42.498Z,26.53
2022-11-30T07:06:14.919Z,27.97
2022-11-30T07:08:43.952Z,26.80
2022-11-30T07:11:12.804Z,28.63
2022-11-30T07:13:39.924Z,28.17
2022-11-30T07:16:11.310Z,26.60
2022-11-30T07:18:39.289Z,26.77
2022-11-30T07:21:07.404Z,26.70
2022-11-30T07:23:56.876Z,27.47
2022-11-30T07:26:25.582Z,26.50
2022-11-30T07:28:55.364Z,28.43
2022-11-30T07:31:36.584Z,27.17
2022-11-30T07:34:09.221Z,27.73
2022-11-30T07:36:37.050Z,27.00
2022-11-30T07:39:04.646Z,26.80
2022-11-30T07:41:31.679Z,27.73
2022-11-30T07:43:58.755Z,28.57
2022-11-30T07:46:25.752Z,28.43
2022-11-30T07:48:52.803Z,29.20
2022-11-30T07:51:22.786Z,28.37
2022-11-30T07:53:50.539Z,29.00
2022-11-30T07:56:20.831Z,30.73
2022-11-30T07:58:50.023Z,25.53
2022-11-30T08:01:21.843Z,28.80
2022-11-30T08:03:50.831Z,31.30
2022-11-30T08:06:24.679Z,29.93
2022-11-30T08:08:54.764Z,28.87
2022-11-30T08:11:27.162Z,25.77
2022-11-30T08:13:54.759Z,26.57
2022-11-30T08:16:25.465Z,29.03
2022-11-30T08:18:53.519Z,28.73
2022-11-30T08:21:21.750Z,28.87
2022-11-30T08:23:57.080Z,29.77
2022-11-30T08:26:31.305Z,33.07
2022-11-30T08:29:00.407Z,32.10
2022-11-30T08:31:31.607Z,30.70
2022-11-30T08:34:05.773Z,28.20
2022-11-30T08:36:33.795Z,29.00
2022-11-30T08:39:05.253Z,29.70
2022-11-30T08:41:34.898Z,30.23
2022-11-30T08:44:02.003Z,27.97
2022-11-30T08:49:24.554Z,27.10
2022-11-30T08:54:46.049Z,27.17
2022-11-30T08:57:19.653Z,27.30
2022-11-30T08:59:47.527Z,26.83
2022-11-30T09:02:18.753Z,27.70
2022-11-30T09:04:49.591Z,29.40
2022-11-30T09:07:18.340Z,28.57
2022-11-30T09:09:45.688Z,28.53
2022-11-30T09:12:12.653Z,27.93
2022-11-30T09:14:39.611Z,30.53
2022-11-30T09:17:06.467Z,28.47
2022-11-30T09:19:33.397Z,29.27
2022-11-30T09:22:00.666Z,28.63
2022-11-30T09:24:27.785Z,27.43
2022-11-30T09:26:57.947Z,27.90
2022-11-30T09:29:24.966Z,26.10
2022-11-30T09:31:52.086Z,29.63
2022-11-30T09:34:19.064Z,30.60
2022-11-30T09:36:46.186Z,24.70
2022-11-30T09:39:13.239Z,27.50
2022-11-30T09:42:20.701Z,30.47
2022-11-30T09:45:11.754Z,27.23
2022-11-30T09:48:06.549Z,24.50
2022-11-30T09:50:44.355Z,28.83
2022-11-30T09:53:37.606Z,31.90
2022-11-30T09:56:19.065Z,29.80
2022-11-30T09:59:03.129Z,26.67
2022-11-30T10:01:32.814Z,27.30
2022-11-30T10:04:01.846Z,29.17
2022-11-30T10:06:57.625Z,28.33
2022-11-30T10:10:09.443Z,26.27
2022-11-30T10:12:49.151Z,26.60
2022-11-30T10:15:37.973Z,27.67
2022-11-30T10:18:47.485Z,27.17
2022-11-30T10:21:43.503Z,26.37
2022-11-30T10:24:53.553Z,25.93
2022-11-30T10:28:30.898Z,28.50
2022-11-30T10:30:51.909Z,25.37
2022-11-30T10:33:26.036Z,26.13
2022-11-30T10:36:04.817Z,29.40
2022-11-30T10:38:41.379Z,29.27
2022-11-30T10:41:14.365Z,25.73
2022-11-30T10:43:47.722Z,26.50
2022-11-30T10:46:31.788Z,27.63
2022-11-30T10:49:08.242Z,26.67
2022-11-30T10:51:39.850Z,31.20
2022-11-30T10:54:17.019Z,30.13
2022-11-30T10:56:44.460Z,29.27
2022-11-30T10:59:26.565Z,25.40
2022-11-30T11:01:54.116Z,25.53
2022-11-30T11:04:24.107Z,29.70
2022-11-30T11:06:55.768Z,25.60
2022-11-30T11:09:42.898Z,27.20
2022-11-30T11:12:19.299Z,28.50
2022-11-30T11:14:46.685Z,28.90
2022-11-30T11:17:19.979Z,26.57
2022-11-30T11:19:50.434Z,26.73
2022-11-30T11:22:30.267Z,25.87
2022-11-30T11:25:25.169Z,24.33
2022-11-30T11:28:12.156Z,27.20
2022-11-30T11:30:39.576Z,29.07
2022-11-30T11:33:12.652Z,27.03
2022-11-30T11:35:44.482Z,25.87
2022-11-30T11:38:31.751Z,27.23
2022-11-30T11:41:07.030Z,26.43
2022-11-30T11:43:55.912Z,26.17
2022-11-30T11:46:23.138Z,25.90
2022-11-30T11:49:02.071Z,25.77
2022-11-30T11:51:39.004Z,26.20
2022-11-30T11:54:48.105Z,26.67
2022-11-30T11:57:18.178Z,25.20
2022-11-30T12:00:16.595Z,25.50
2022-11-30T12:03:00.279Z,24.40
2022-11-30T12:05:49.654Z,25.17
2022-11-30T12:08:46.458Z,26.07
2022-11-30T12:11:26.259Z,23.47
2022-11-30T12:13:53.845Z,24.77
2022-11-30T12:17:01.409Z,25.43
2022-11-30T12:20:03.915Z,24.53
2022-11-30T12:23:08.285Z,24.23
2022-11-30T12:25:51.445Z,25.90
2022-11-30T12:28:54.799Z,23.60
2022-11-30T12:31:50.029Z,24.17
2022-11-30T12:34:42.714Z,25.80
2022-11-30T12:37:27.302Z,23.73
2022-11-30T12:40:24.678Z,22.80
2022-11-30T12:43:12.990Z,22.17
2022-11-30T12:45:48.088Z,19.93
2022-11-30T12:48:45.072Z,23.87
2022-11-30T12:51:29.631Z,22.03
2022-11-30T12:54:17.850Z,22.77
2022-11-30T12:57:19.114Z,21.77
2022-11-30T13:00:04.657Z,21.67
2022-11-30T13:03:03.535Z,22.93
2022-11-30T13:05:48.728Z,22.63
2022-11-30T13:08:26.166Z,25.00
2022-11-30T13:11:03.210Z,22.00
2022-11-30T13:13:34.534Z,21.37
2022-11-30T13:16:06.257Z,22.60
2022-11-30T13:18:34.989Z,20.80
2022-11-30T13:21:13.724Z,19.77
2022-11-30T13:23:55.208Z,21.63
2022-11-30T13:26:40.469Z,22.30
2022-11-30T13:29:44.922Z,21.57
2022-11-30T13:32:55.322Z,21.60
2022-11-30T13:35:29.397Z,21.63
2022-11-30T13:38:34.610Z,24.07
2022-11-30T13:41:06.109Z,21.57
2022-11-30T13:43:47.766Z,23.50
2022-11-30T13:46:20.375Z,24.10
2022-11-30T13:48:48.577Z,23.23
2022-11-30T13:51:38.597Z,28.60
2022-11-30T13:54:57.522Z,23.47
2022-11-30T13:57:30.525Z,23.63
2022-11-30T14:00:30.624Z,23.23
2022-11-30T14:03:18.290Z,25.60
2022-11-30T14:05:56.360Z,25.17
2022-11-30T14:08:23.191Z,24.80
2022-11-30T14:11:41.599Z,26.27
2022-11-30T14:14:47.490Z,25.63
2022-11-30T14:17:22.598Z,26.03
2022-11-30T14:19:59.909Z,24.90
2022-11-30T14:22:29.569Z,25.77
2022-11-30T14:24:56.921Z,26.30
2022-11-30T14:27:27.874Z,28.30
2022-11-30T14:30:01.498Z,29.17
2022-11-30T14:32:45.223Z,26.27
2022-11-30T14:35:17.221Z,25.37
2022-11-30T14:37:52.033Z,28.30
2022-11-30T14:40:22.413Z,28.80
2022-11-30T14:42:57.007Z,27.87
2022-11-30T14:45:33.435Z,26.80
2022-11-30T14:48:14.534Z,26.20
2022-11-30T14:50:52.408Z,27.07
2022-11-30T14:53:52.778Z,27.27
2022-11-30T14:57:03.491Z,25.47
2022-11-30T14:59:47.683Z,26.73
2022-11-30T15:02:22.861Z,29.13
2022-11-30T15:04:53.306Z,27.50
2022-11-30T15:07:21.418Z,31.07
2022-11-30T15:09:54.694Z,27.80
2022-11-30T15:12:24.686Z,28.60
2022-11-30T15:15:15.777Z,27.30
2022-11-30T15:18:11.060Z,26.97
2022-11-30T15:20:51.923Z,30.13
2022-11-30T15:23:18.991Z,30.03
2022-11-30T15:25:51.374Z,28.87
2022-11-30T15:28:41.879Z,30.00
2022-11-30T15:31:15.255Z,30.03
2022-11-30T15:33:48.202Z,29.90
2022-11-30T15:36:31.797Z,33.17
2022-11-30T15:39:04.490Z,30.60
2022-11-30T15:41:34.267Z,29.23
2022-11-30T15:44:04.657Z,28.00
2022-11-30T15:46:46.449Z,26.80
2022-11-30T15:49:25.374Z,27.47
2022-11-30T15:52:15.807Z,28.57
2022-11-30T15:54:57.535Z,30.53
2022-11-30T15:57:27.398Z,28.20
2022-11-30T16:00:29.990Z,29.50
2022-11-30T16:03:12.666Z,30.60
2022-11-30T16:05:40.645Z,30.00
2022-11-30T16:08:18.627Z,30.73
2022-11-30T16:10:45.688Z,29.37
2022-11-30T16:13:18.159Z,31.10
2022-11-30T16:15:49.332Z,30.80
2022-11-30T16:18:25.647Z,29.90
2022-11-30T16:21:01.755Z,32.40
2022-11-30T16:23:29.106Z,31.37
2022-11-30T16:25:56.554Z,33.07
2022-11-30T16:28:23.719Z,31.07
2022-11-30T16:30:52.014Z,29.67
2022-11-30T16:33:25.540Z,29.40
2022-11-30T16:36:00.976Z,32.90
2022-11-30T16:38:29.337Z,31.80
2022-11-30T16:41:11.993Z,33.90
2022-11-30T16:43:41.335Z,31.20
2022-11-30T16:46:22.795Z,32.83
2022-11-30T16:48:51.038Z,30.70
2022-11-30T16:51:31.706Z,33.80
2022-11-30T16:53:59.053Z,32.27
2022-11-30T16:56:26.275Z,32.23
2022-11-30T16:58:54.316Z,32.10
2022-11-30T17:01:36.742Z,30.97
2022-11-30T17:04:22.986Z,29.97
2022-11-30T17:06:53.681Z,29.90
2022-11-30T17:09:23.279Z,29.27
2022-11-30T17:11:51.605Z,29.37
2022-11-30T17:14:20.714Z,32.10
2022-11-30T17:16:47.841Z,32.00
2022-11-30T17:19:14.907Z,32.30
2022-11-30T17:21:44.800Z,32.13
2022-11-30T17:24:12.474Z,34.00
2022-11-30T17:26:39.594Z,33.37
2022-11-30T17:29:06.880Z,32.33
2022-11-30T17:31:33.974Z,30.70
2022-11-30T17:34:00.929Z,31.67
2022-11-30T17:36:29.486Z,33.07
2022-11-30T17:38:56.908Z,31.27
2022-11-30T17:41:24.009Z,32.27
2022-11-30T17:43:52.264Z,31.27
2022-11-30T17:46:19.881Z,35.63
2022-11-30T17:48:46.944Z,29.47
2022-11-30T17:51:14.464Z,30.80
2022-11-30T17:53:43.237Z,29.77
2022-11-30T17:56:17.559Z,30.60
2022-11-30T17:58:45.642Z,30.90
2022-11-30T18:01:20.768Z,30.07
2022-11-30T18:03:48.129Z,31.53
2022-11-30T18:06:16.236Z,34.67
2022-11-30T18:08:44.049Z,30.33
2022-11-30T18:11:22.714Z,32.63
2022-11-30T18:13:53.603Z,30.87
2022-11-30T18:16:30.898Z,29.60
2022-11-30T18:18:59.089Z,29.17
2022-11-30T18:21:30.010Z,31.87
2022-11-30T18:23:59.142Z,32.97
2022-11-30T18:26:27.561Z,30.63
2022-11-30T18:28:57.613Z,31.27
2022-11-30T18:31:26.308Z,31.17
2022-11-30T18:34:04.710Z,31.63
2022-11-30T18:36:32.358Z,30.40
2022-11-30T18:38:59.686Z,31.10
2022-11-30T18:41:28.679Z,32.50
2022-11-30T18:43:55.704Z,29.33
2022-11-30T18:46:23.074Z,30.50
2022-11-30T18:48:52.053Z,32.53
2022-11-30T18:51:25.141Z,32.07
2022-11-30T18:54:01.715Z,29.00
2022-11-30T18:56:32.646Z,32.80
2022-11-30T18:59:03.674Z,31.33
2022-11-30T19:01:32.237Z,31.70
2022-11-30T19:04:06.539Z,31.37
2022-11-30T19:06:34.818Z,30.43
2022-11-30T19:09:06.524Z,30.80
2022-11-30T19:11:34.111Z,28.27
2022-11-30T19:14:02.104Z,30.10
2022-11-30T19:17:07.079Z,29.07
2022-11-30T19:19:35.698Z,30.43
2022-11-30T19:22:04.242Z,32.50
2022-11-30T19:24:31.198Z,32.10
2022-11-30T19:26:59.945Z,29.83
2022-11-30T19:29:26.896Z,30.40
2022-11-30T19:31:55.074Z,31.77
2022-11-30T19:34:27.476Z,29.80
2022-11-30T19:36:55.233Z,31.67
2022-11-30T19:39:24.667Z,31.00
2022-11-30T19:41:51.839Z,31.80
2022-11-30T19:44:18.795Z,29.27
2022-11-30T19:46:45.837Z,30.43
2022-11-30T19:49:13.269Z,30.37
2022-11-30T19:51:44.014Z,30.73
2022-11-30T19:54:11.098Z,31.20
2022-11-30T19:56:39.179Z,32.37
2022-11-30T19:59:06.441Z,29.70
2022-11-30T20:01:34.999Z,32.50
2022-11-30T20:04:12.119Z,30.70
2022-11-30T20:06:39.869Z,33.83
2022-11-30T20:09:14.160Z,31.37
2022-11-30T20:11:44.833Z,28.13
2022-11-30T20:14:17.999Z,31.00
2022-11-30T20:16:45.039Z,29.83
2022-11-30T20:19:21.130Z,29.33
2022-11-30T20:22:10.303Z,29.67
2022-11-30T20:24:43.503Z,29.13
2022-11-30T20:27:17.495Z,30.27
2022-11-30T20:29:47.595Z,28.07
2022-11-30T20:32:15.787Z,29.40
2022-11-30T20:34:50.350Z,28.73
2022-11-30T20:37:20.333Z,26.80
2022-11-30T20:39:55.735Z,29.53
2022-11-30T20:42:23.078Z,29.80
2022-11-30T20:44:50.287Z,27.33
2022-11-30T20:47:26.094Z,28.60
2022-11-30T20:50:06.271Z,28.13
2022-11-30T20:52:46.063Z,28.50
2022-11-30T20:55:14.996Z,28.50
2022-11-30T20:57:55.475Z,31.87
2022-11-30T21:00:24.269Z,28.97
2022-11-30T21:02:53.174Z,28.70
2022-11-30T21:05:20.191Z,31.50
2022-11-30T21:07:49.106Z,27.27
2022-11-30T21:10:16.826Z,29.23
2022-11-30T21:12:43.858Z,26.43
2022-11-30T21:15:12.308Z,28.17
2022-11-30T21:17:41.137Z,31.37
2022-11-30T21:20:12.979Z,30.60
2022-11-30T21:22:39.948Z,29.00
2022-11-30T21:25:07.459Z,30.47
2022-11-30T21:27:34.993Z,27.30
2022-11-30T21:30:02.149Z,26.80
2022-11-30T21:32:29.113Z,26.43
2022-11-30T21:34:56.148Z,27.10
2022-11-30T21:37:23.040Z,24.53
2022-11-30T21:39:50.025Z,27.47
2022-11-30T21:42:17.068Z,27.00
2022-11-30T21:44:43.997Z,24.77
2022-11-30T21:47:13.828Z,27.33
2022-11-30T21:49:40.699Z,26.47
2022-11-30T21:52:07.649Z,26.80
2022-11-30T21:54:34.559Z,26.83
2022-11-30T21:57:01.538Z,26.30
2022-11-30T21:59:29.774Z,26.03
2022-11-30T22:01:56.808Z,22.43
2022-11-30T22:04:23.846Z,24.70
2022-11-30T22:06:50.814Z,23.07
2022-11-30T22:09:18.116Z,22.30
2022-11-30T22:11:45.976Z,23.43
2022-11-30T22:14:16.827Z,23.17
2022-11-30T22:16:44.469Z,24.00
2022-11-30T22:19:11.454Z,22.40
2022-11-30T22:21:38.633Z,22.03
2022-11-30T22:24:10.713Z,21.47
2022-11-30T22:26:41.344Z,23.97
2022-11-30T22:29:20.496Z,22.50
2022-11-30T22:31:51.192Z,21.33
2022-11-30T22:34:19.207Z,20.80
2022-11-30T22:36:47.548Z,19.80
2022-11-30T22:39:20.995Z,18.30
2022-11-30T22:41:55.157Z,20.10
2022-11-30T22:44:24.349Z,18.00
2022-11-30T22:46:51.409Z,19.30
2022-11-30T22:49:21.666Z,19.10
2022-11-30T22:51:50.041Z,19.13
2022-11-30T22:54:18.358Z,19.50
2022-11-30T22:56:46.684Z,17.10
2022-11-30T22:59:15.214Z,18.57
2022-11-30T23:01:46.240Z,18.30
2022-11-30T23:04:16.987Z,17.90
2022-11-30T23:06:45.532Z,20.27
2022-11-30T23:09:17.174Z,19.33
2022-11-30T23:11:44.524Z,16.73
2022-11-30T23:14:12.391Z,16.07
2022-11-30T23:16:40.835Z,16.07
2022-11-30T23:19:10.473Z,16.70
2022-11-30T23:21:42.097Z,17.17
2022-11-30T23:24:20.872Z,18.97
2022-11-30T23:26:48.447Z,17.50
2022-11-30T23:29:17.499Z,17.07
2022-11-30T23:31:46.177Z,16.10
2022-11-30T23:34:21.623Z,16.57
2022-11-30T23:36:51.379Z,18.23
2022-11-30T23:39:20.337Z,17.13
2022-11-30T23:41:48.435Z,16.07
2022-11-30T23:44:15.524Z,16.93
2022-11-30T23:46:42.655Z,15.10
2022-11-30T23:49:11.697Z,16.60
2022-11-30T23:51:38.622Z,17.10
2022-11-30T23:54:05.684Z,16.50
2022-11-30T23:56:32.752Z,15.97
2022-11-30T23:58:59.704Z,14.67
